createdAt,value
2019-04-03T00:00:04.376Z,49.87
2019-04-03T00:01:04.714Z,49.75
2019-04-03T00:02:04.381Z,49.44
2019-04-03T00:03:04.411Z,49.54
2019-04-03T00:04:04.707Z,50.05
2019-04-03T00:05:02.770Z,49.95
2019-04-03T00:06:03.686Z,49.95
2019-04-03T00:07:03.853Z,49.75
2019-04-03T00:08:02.617Z,49.65
2019-04-03T00:09:02.606Z,49.87
2019-04-03T00:10:02.628Z,50.08
2019-04-03T00:11:02.588Z,49.77
2019-04-03T00:12:02.577Z,50.38
2019-04-03T00:13:02.673Z,50.08
2019-04-03T00:14:02.583Z,50.08
2019-04-03T00:15:02.542Z,50.99
2019-04-03T00:16:02.540Z,51.61
2019-04-03T00:17:02.520Z,51.12
2019-04-03T00:18:02.512Z,51.63
2019-04-03T00:19:02.500Z,52.14
2019-04-03T00:20:02.519Z,51.93
2019-04-03T00:21:02.493Z,51.84
2019-04-03T00:22:02.468Z,52.04
2019-04-03T00:23:02.459Z,52.04
2019-04-03T00:24:02.504Z,52.34
2019-04-03T00:26:01.421Z,53.06
2019-04-03T00:27:02.518Z,53.39
2019-04-03T00:28:02.393Z,53.39
2019-04-03T00:29:02.382Z,52.98
2019-04-03T00:30:02.376Z,53.49
2019-04-03T00:31:02.380Z,53.29
2019-04-03T00:32:02.521Z,53.39
2019-04-03T00:33:02.346Z,53.70
2019-04-03T00:34:02.336Z,53.80
2019-04-03T00:35:02.318Z,53.59
2019-04-03T00:36:02.399Z,53.70
2019-04-03T00:37:02.320Z,53.08
2019-04-03T00:38:02.283Z,53.52
2019-04-03T00:39:02.279Z,53.52
2019-04-03T00:40:02.271Z,53.80
2019-04-03T00:41:02.415Z,54.31
2019-04-03T00:42:02.247Z,54.44
2019-04-03T00:43:02.247Z,53.90
2019-04-03T00:44:02.345Z,54.23
2019-04-03T00:45:02.212Z,53.62
2019-04-03T00:46:02.197Z,53.49
2019-04-03T00:47:02.480Z,53.80
2019-04-03T00:48:03.125Z,53.52
2019-04-03T00:49:02.185Z,54.03
2019-04-03T00:50:02.293Z,54.00
2019-04-03T00:51:02.142Z,54.13
2019-04-03T00:52:02.277Z,55.36
2019-04-03T00:53:02.124Z,54.33
2019-04-03T00:54:02.110Z,54.03
2019-04-03T00:55:02.118Z,53.92
2019-04-03T00:56:02.093Z,54.33
2019-04-03T00:57:02.093Z,53.92
2019-04-03T00:58:02.069Z,53.92
2019-04-03T00:59:02.123Z,54.54
2019-04-03T01:00:02.100Z,55.26
2019-04-03T01:01:02.042Z,55.15
2019-04-03T01:02:02.102Z,55.36
2019-04-03T01:03:02.019Z,55.26
2019-04-03T01:04:01.992Z,55.26
2019-04-03T01:05:01.991Z,55.15
2019-04-03T01:06:02.084Z,55.56
2019-04-03T01:07:01.993Z,54.95
2019-04-03T01:08:01.963Z,55.18
2019-04-03T01:09:02.005Z,55.38
2019-04-03T01:10:01.930Z,55.56
2019-04-03T01:11:01.925Z,55.36
2019-04-03T01:12:01.930Z,54.77
2019-04-03T01:13:02.234Z,55.18
2019-04-03T01:14:02.339Z,53.95
2019-04-03T01:15:02.322Z,54.57
2019-04-03T01:16:02.519Z,54.46
2019-04-03T01:17:03.380Z,54.05
2019-04-03T01:18:04.285Z,54.57
2019-04-03T01:19:01.839Z,54.97
2019-04-03T01:20:01.838Z,55.18
2019-04-03T01:21:01.979Z,55.26
2019-04-03T01:22:01.842Z,55.36
2019-04-03T01:23:01.791Z,56.07
2019-04-03T01:24:01.814Z,55.28
2019-04-03T01:25:01.896Z,55.49
2019-04-03T01:26:01.774Z,55.18
2019-04-03T01:27:01.748Z,55.79
2019-04-03T01:28:01.853Z,55.49
2019-04-03T01:29:01.772Z,55.69
2019-04-03T01:30:01.736Z,55.49
2019-04-03T01:31:01.705Z,55.99
2019-04-03T01:32:01.694Z,56.02
2019-04-03T01:33:01.678Z,55.82
2019-04-03T01:34:01.697Z,55.28
2019-04-03T01:35:01.663Z,55.62
2019-04-03T01:36:01.649Z,54.26
2019-04-03T01:37:01.634Z,53.95
2019-04-03T01:38:01.624Z,53.23
2019-04-03T01:40:00.599Z,54.26
2019-04-03T01:41:01.596Z,53.54
2019-04-03T01:42:01.588Z,53.64
2019-04-03T01:43:01.576Z,54.26
2019-04-03T01:44:01.559Z,54.23
2019-04-03T01:45:01.588Z,54.26
2019-04-03T01:46:02.111Z,53.95
2019-04-03T01:47:01.534Z,53.95
2019-04-03T01:48:01.627Z,53.64
2019-04-03T01:49:01.504Z,54.36
2019-04-03T01:50:01.492Z,54.46
2019-04-03T01:51:01.528Z,54.36
2019-04-03T01:52:01.531Z,53.92
2019-04-03T01:53:02.415Z,53.03
2019-04-03T01:54:02.913Z,53.64
2019-04-03T01:55:03.369Z,53.62
2019-04-03T01:56:04.275Z,53.34
2019-04-03T01:57:01.415Z,53.01
2019-04-03T01:58:01.406Z,53.44
2019-04-03T01:59:02.102Z,53.13
2019-04-03T02:00:01.380Z,53.54
2019-04-03T02:01:01.368Z,53.85
2019-04-03T02:02:01.358Z,53.54
2019-04-03T02:03:02.128Z,53.44
2019-04-03T02:04:01.449Z,53.34
2019-04-03T02:05:01.329Z,53.34
2019-04-03T02:06:01.460Z,53.13
2019-04-03T02:07:01.303Z,53.34
2019-04-03T02:08:01.287Z,54.05
2019-04-03T02:09:01.305Z,53.34
2019-04-03T02:10:01.277Z,53.64
2019-04-03T02:11:01.264Z,53.75
2019-04-03T02:12:01.251Z,53.75
2019-04-03T02:13:01.247Z,53.16
2019-04-03T02:14:01.289Z,53.13
2019-04-03T02:15:01.241Z,53.75
2019-04-03T02:16:01.206Z,53.13
2019-04-03T02:17:01.200Z,53.13
2019-04-03T02:18:04.119Z,53.13
2019-04-03T02:19:01.169Z,53.64
2019-04-03T02:20:01.176Z,53.98
2019-04-03T02:21:01.181Z,54.05
2019-04-03T02:22:02.095Z,54.08
2019-04-03T02:23:01.124Z,53.36
2019-04-03T02:24:01.575Z,53.98
2019-04-03T02:25:01.898Z,53.36
2019-04-03T02:26:02.468Z,53.95
2019-04-03T02:28:03.776Z,54.08
2019-04-03T02:29:01.089Z,54.28
2019-04-03T02:30:01.051Z,54.49
2019-04-03T02:31:01.254Z,54.18
2019-04-03T02:32:01.032Z,54.00
2019-04-03T02:33:01.116Z,54.39
2019-04-03T02:34:02.286Z,54.28
2019-04-03T02:35:00.995Z,54.28
2019-04-03T02:36:01.050Z,54.00
2019-04-03T02:37:01.143Z,54.18
2019-04-03T02:38:00.965Z,54.49
2019-04-03T02:39:00.983Z,54.08
2019-04-03T02:40:01.184Z,55.30
2019-04-03T02:41:03.499Z,55.13
2019-04-03T02:42:00.918Z,55.33
2019-04-03T02:43:00.905Z,55.64
2019-04-03T02:44:00.905Z,55.43
2019-04-03T02:47:01.328Z,55.43
2019-04-03T02:48:04.809Z,55.64
2019-04-03T02:49:01.232Z,55.84
2019-04-03T02:50:00.939Z,55.64
2019-04-03T02:51:00.835Z,55.43
2019-04-03T02:52:00.808Z,55.74
2019-04-03T02:53:00.793Z,55.26
2019-04-03T02:54:02.405Z,55.46
2019-04-03T02:55:00.776Z,54.61
2019-04-03T02:56:01.022Z,54.92
2019-04-03T02:57:00.756Z,55.33
2019-04-03T02:58:00.742Z,54.92
2019-04-03T02:59:00.737Z,55.15
2019-04-03T03:00:01.085Z,55.13
2019-04-03T03:01:05.580Z,54.95
2019-04-03T03:02:00.708Z,55.33
2019-04-03T03:03:00.689Z,55.56
2019-04-03T03:04:00.816Z,55.33
2019-04-03T03:05:00.667Z,55.23
2019-04-03T03:06:01.447Z,56.28
2019-04-03T03:07:03.211Z,55.46
2019-04-03T03:08:00.920Z,55.26
2019-04-03T03:09:00.624Z,55.33
2019-04-03T03:10:00.608Z,55.15
2019-04-03T03:11:00.819Z,55.36
2019-04-03T03:12:00.592Z,55.46
2019-04-03T03:13:02.288Z,55.87
2019-04-03T03:14:00.565Z,55.26
2019-04-03T03:15:00.553Z,55.26
2019-04-03T03:16:00.551Z,55.36
2019-04-03T03:17:00.543Z,54.95
2019-04-03T03:18:00.547Z,55.56
2019-04-03T03:19:01.687Z,55.56
2019-04-03T03:20:05.270Z,55.77
2019-04-03T03:21:00.823Z,55.66
2019-04-03T03:22:00.480Z,55.02
2019-04-03T03:23:01.005Z,55.56
2019-04-03T03:24:00.466Z,55.26
2019-04-03T03:25:01.274Z,55.36
2019-04-03T03:26:04.048Z,55.26
2019-04-03T03:27:00.435Z,55.36
2019-04-03T03:28:00.420Z,54.54
2019-04-03T03:29:15.069Z,54.74
2019-04-03T03:30:00.473Z,54.92
2019-04-03T03:31:04.600Z,54.95
2019-04-03T03:32:11.458Z,55.05
2019-04-03T03:33:22.733Z,55.05
2019-04-03T03:34:04.088Z,55.36
2019-04-03T03:35:07.672Z,55.36
2019-04-03T03:36:00.495Z,55.26
2019-04-03T03:37:03.192Z,55.77
2019-04-03T03:38:00.619Z,55.36
2019-04-03T03:39:00.290Z,55.26
2019-04-03T03:40:00.282Z,55.36
2019-04-03T03:41:00.286Z,55.46
2019-04-03T03:42:00.594Z,54.95
2019-04-03T03:43:03.582Z,54.33
2019-04-03T03:44:00.501Z,54.64
2019-04-03T03:45:00.260Z,54.13
2019-04-03T03:46:00.236Z,54.74
2019-04-03T03:47:02.579Z,54.13
2019-04-03T03:48:00.209Z,53.41
2019-04-03T03:49:00.283Z,54.03
2019-04-03T03:50:00.756Z,54.03
2019-04-03T03:51:00.165Z,53.72
2019-04-03T03:52:02.624Z,53.21
2019-04-03T03:53:00.145Z,53.72
2019-04-03T03:54:00.128Z,53.41
2019-04-03T03:55:00.251Z,53.82
2019-04-03T03:56:00.104Z,53.72
2019-04-03T03:57:03.843Z,53.82
2019-04-03T03:58:00.083Z,53.82
2019-04-03T03:59:00.073Z,54.03
2019-04-03T04:00:00.073Z,53.52
2019-04-03T04:01:01.017Z,53.62
2019-04-03T04:02:03.465Z,53.82
2019-04-03T04:03:00.026Z,53.62
2019-04-03T04:04:00.080Z,53.62
2019-04-03T04:05:00.032Z,53.62
2019-04-03T04:06:00.043Z,53.62
2019-04-03T04:07:03.499Z,53.82
2019-04-03T04:07:59.978Z,53.72
2019-04-03T04:09:00.262Z,54.03
2019-04-03T04:09:59.949Z,53.41
2019-04-03T04:11:00.435Z,53.82
2019-04-03T04:11:59.965Z,53.41
2019-04-03T04:13:00.020Z,53.62
2019-04-03T04:13:59.905Z,53.72
2019-04-03T04:14:59.893Z,53.72
2019-04-03T04:16:02.781Z,53.21
2019-04-03T04:17:00.320Z,53.62
2019-04-03T04:18:00.357Z,53.92
2019-04-03T04:18:59.880Z,54.13
2019-04-03T04:20:03.064Z,53.31
2019-04-03T04:20:59.825Z,53.21
2019-04-03T04:21:59.823Z,53.72
2019-04-03T04:22:59.819Z,53.21
2019-04-03T04:23:59.794Z,53.31
2019-04-03T04:25:02.563Z,54.03
2019-04-03T04:26:02.581Z,53.82
2019-04-03T04:27:00.844Z,53.92
2019-04-03T04:28:02.564Z,54.16
2019-04-03T04:28:59.757Z,53.44
2019-04-03T04:29:59.727Z,54.64
2019-04-03T04:30:59.737Z,54.33
2019-04-03T04:31:59.707Z,54.36
2019-04-03T04:32:59.868Z,54.46
2019-04-03T04:33:59.704Z,54.33
2019-04-03T04:34:59.675Z,54.67
2019-04-03T04:35:59.703Z,54.97
2019-04-03T04:37:02.078Z,55.18
2019-04-03T04:37:59.645Z,55.49
2019-04-03T04:38:59.630Z,55.28
2019-04-03T04:40:00.265Z,55.28
2019-04-03T04:41:01.549Z,55.30
2019-04-03T04:41:59.615Z,54.67
2019-04-03T04:42:59.593Z,55.69
2019-04-03T04:43:59.570Z,55.00
2019-04-03T04:44:59.572Z,55.38
2019-04-03T04:46:00.058Z,55.49
2019-04-03T04:46:59.544Z,55.18
2019-04-03T04:47:59.544Z,55.28
2019-04-03T04:49:58.532Z,55.21
2019-04-03T04:50:59.514Z,55.58
2019-04-03T04:51:59.486Z,55.82
2019-04-03T04:52:59.524Z,55.51
2019-04-03T04:54:00.157Z,55.21
2019-04-03T04:55:01.363Z,55.69
2019-04-03T04:55:59.444Z,55.10
2019-04-03T04:56:59.460Z,55.58
2019-04-03T04:57:59.418Z,55.30
2019-04-03T04:58:59.412Z,55.72
2019-04-03T04:59:59.399Z,55.10
2019-04-03T05:00:59.387Z,55.51
2019-04-03T05:03:00.918Z,55.51
2019-04-03T05:03:59.380Z,55.82
2019-04-03T05:04:59.339Z,55.30
2019-04-03T05:05:59.334Z,55.92
2019-04-03T05:07:00.171Z,55.41
2019-04-03T05:08:01.358Z,55.30
2019-04-03T05:08:59.326Z,55.30
2019-04-03T05:09:59.288Z,55.30
2019-04-03T05:10:59.299Z,55.30
2019-04-03T05:11:59.271Z,56.02
2019-04-03T05:12:59.303Z,56.54
2019-04-03T05:14:02.052Z,56.13
2019-04-03T05:14:59.241Z,56.23
2019-04-03T05:15:59.277Z,56.13
2019-04-03T05:16:59.210Z,56.13
2019-04-03T05:17:59.200Z,56.26
2019-04-03T05:19:09.055Z,56.13
2019-04-03T05:19:59.295Z,56.13
2019-04-03T05:20:59.176Z,56.13
2019-04-03T05:21:59.165Z,56.13
2019-04-03T05:22:59.328Z,56.64
2019-04-03T05:24:10.931Z,56.23
2019-04-03T05:24:59.973Z,56.54
2019-04-03T05:26:00.840Z,56.33
2019-04-03T05:26:59.098Z,55.62
2019-04-03T05:27:59.095Z,56.13
2019-04-03T05:29:03.005Z,56.54
2019-04-03T05:29:59.070Z,56.43
2019-04-03T05:30:59.775Z,55.92
2019-04-03T05:31:59.048Z,55.92
2019-04-03T05:32:59.030Z,56.74
2019-04-03T05:33:59.026Z,55.92
2019-04-03T05:34:59.012Z,56.05
2019-04-03T05:36:01.550Z,55.82
2019-04-03T05:37:00.686Z,55.41
2019-04-03T05:38:01.546Z,56.02
2019-04-03T05:38:58.968Z,56.64
2019-04-03T05:39:58.996Z,55.92
2019-04-03T05:40:59.546Z,55.92
2019-04-03T05:41:59.782Z,55.62
2019-04-03T05:43:00.155Z,55.82
2019-04-03T05:44:01.462Z,55.90
2019-04-03T05:44:59.546Z,56.13
2019-04-03T05:45:58.892Z,55.79
2019-04-03T05:46:59.889Z,56.10
2019-04-03T05:47:58.866Z,56.20
2019-04-03T05:48:59.060Z,56.00
2019-04-03T05:50:58.638Z,56.20
2019-04-03T05:51:58.835Z,56.13
2019-04-03T05:52:59.543Z,56.13
2019-04-03T05:53:58.817Z,55.90
2019-04-03T05:54:58.908Z,55.69
2019-04-03T05:55:58.798Z,56.10
2019-04-03T05:56:58.937Z,56.23
2019-04-03T05:57:58.842Z,55.92
2019-04-03T05:59:01.306Z,55.90
2019-04-03T06:00:01.895Z,56.51
2019-04-03T06:01:05.156Z,56.10
2019-04-03T06:01:58.712Z,56.10
2019-04-03T06:03:01.554Z,56.00
2019-04-03T06:04:01.539Z,56.20
2019-04-03T06:04:58.759Z,55.90
2019-04-03T06:05:58.786Z,56.10
2019-04-03T06:06:58.882Z,55.79
2019-04-03T06:07:58.652Z,55.38
2019-04-03T06:08:58.656Z,55.79
2019-04-03T06:09:59.192Z,55.08
2019-04-03T06:10:58.616Z,55.49
2019-04-03T06:12:01.616Z,55.38
2019-04-03T06:12:58.614Z,55.69
2019-04-03T06:13:58.643Z,55.28
2019-04-03T06:14:58.618Z,55.46
2019-04-03T06:15:58.572Z,55.15
2019-04-03T06:16:58.564Z,55.66
2019-04-03T06:17:58.540Z,55.87
2019-04-03T06:19:06.309Z,56.18
2019-04-03T06:19:58.801Z,55.87
2019-04-03T06:21:01.036Z,55.15
2019-04-03T06:21:58.498Z,55.26
2019-04-03T06:22:58.488Z,55.66
2019-04-03T06:23:58.477Z,54.10
2019-04-03T06:24:58.480Z,54.44
2019-04-03T06:26:00.793Z,54.31
2019-04-03T06:26:58.443Z,54.00
2019-04-03T06:27:58.440Z,54.41
2019-04-03T06:28:58.608Z,54.41
2019-04-03T06:29:58.585Z,53.28
2019-04-03T06:30:58.398Z,54.72
2019-04-03T06:31:58.702Z,54.00
2019-04-03T06:33:00.952Z,53.39
2019-04-03T06:33:58.366Z,53.59
2019-04-03T06:34:58.353Z,53.90
2019-04-03T06:35:58.592Z,54.00
2019-04-03T06:36:58.339Z,54.10
2019-04-03T06:37:58.364Z,53.19
2019-04-03T06:38:58.308Z,53.98
2019-04-03T06:39:58.300Z,53.90
2019-04-03T06:40:58.569Z,53.59
2019-04-03T06:41:58.285Z,54.28
2019-04-03T06:42:58.573Z,53.98
2019-04-03T06:43:58.260Z,53.98
2019-04-03T06:44:58.250Z,53.36
2019-04-03T06:47:00.221Z,53.57
2019-04-03T06:47:58.232Z,52.55
2019-04-03T06:48:58.200Z,52.62
2019-04-03T06:49:58.208Z,52.72
2019-04-03T06:50:58.265Z,52.62
2019-04-03T06:51:58.172Z,52.32
2019-04-03T06:52:58.154Z,52.32
2019-04-03T06:53:59.562Z,52.29
2019-04-03T06:54:58.394Z,51.98
2019-04-03T06:55:58.124Z,51.98
2019-04-03T06:56:58.165Z,51.17
2019-04-03T06:57:58.103Z,51.57
2019-04-03T06:58:58.210Z,51.48
2019-04-03T06:59:58.114Z,50.86
2019-04-03T07:01:01.019Z,51.37
2019-04-03T07:01:58.136Z,51.27
2019-04-03T07:02:58.044Z,51.55
2019-04-03T07:03:58.172Z,50.84
2019-04-03T07:04:58.025Z,50.71
2019-04-03T07:05:58.050Z,51.12
2019-04-03T07:06:57.995Z,51.43
2019-04-03T07:08:00.602Z,50.92
2019-04-03T07:09:00.530Z,51.12
2019-04-03T07:09:57.972Z,50.31
2019-04-03T07:10:57.957Z,49.79
2019-04-03T07:11:57.976Z,50.31
2019-04-03T07:12:57.948Z,50.31
2019-04-03T07:13:58.059Z,50.08
2019-04-03T07:14:57.925Z,49.77
2019-04-03T07:15:57.916Z,50.69
2019-04-03T07:17:00.187Z,50.28
2019-04-03T07:18:00.970Z,50.79
2019-04-03T07:18:57.904Z,50.28
2019-04-03T07:19:57.886Z,50.46
2019-04-03T07:20:57.854Z,50.15
2019-04-03T07:21:57.844Z,50.05
2019-04-03T07:22:59.053Z,49.75
2019-04-03T07:24:00.392Z,50.36
2019-04-03T07:24:57.811Z,49.95
2019-04-03T07:25:57.833Z,49.73
2019-04-03T07:26:57.797Z,49.32
2019-04-03T07:27:57.840Z,49.11
2019-04-03T07:28:57.770Z,49.21
2019-04-03T07:29:57.798Z,49.42
2019-04-03T07:30:57.798Z,47.16
2019-04-03T07:31:58.094Z,47.36
2019-04-03T07:32:58.470Z,47.36
2019-04-03T07:33:58.638Z,47.13
2019-04-03T07:34:57.738Z,47.24
2019-04-03T07:35:57.922Z,46.93
2019-04-03T07:36:57.696Z,46.52
2019-04-03T07:37:58.082Z,47.13
2019-04-03T07:38:58.482Z,46.72
2019-04-03T07:39:58.941Z,45.89
2019-04-03T07:40:57.632Z,46.50
2019-04-03T07:41:57.625Z,45.59
2019-04-03T07:42:57.614Z,45.38
2019-04-03T07:43:58.908Z,45.99
2019-04-03T07:44:57.591Z,45.67
2019-04-03T07:45:57.586Z,45.36
2019-04-03T07:46:57.876Z,45.36
2019-04-03T07:47:57.894Z,45.06
2019-04-03T07:48:59.899Z,45.76
2019-04-03T07:49:57.574Z,45.26
2019-04-03T07:50:57.534Z,45.06
2019-04-03T07:51:57.611Z,45.06
2019-04-03T07:52:57.581Z,45.06
2019-04-03T07:53:57.511Z,45.14
2019-04-03T07:54:57.556Z,44.63
2019-04-03T07:55:57.520Z,44.83
2019-04-03T07:56:58.158Z,44.83
2019-04-03T07:58:00.371Z,44.63
2019-04-03T07:58:57.428Z,44.73
2019-04-03T07:59:57.570Z,44.63
2019-04-03T08:00:57.726Z,44.53
2019-04-03T08:01:58.023Z,44.71
2019-04-03T08:02:57.395Z,45.14
2019-04-03T08:03:57.415Z,44.32
2019-04-03T08:05:00.059Z,44.51
2019-04-03T08:05:57.374Z,44.30
2019-04-03T08:06:57.378Z,44.51
2019-04-03T08:07:57.340Z,43.98
2019-04-03T08:09:07.948Z,44.28
2019-04-03T08:09:58.601Z,43.67
2019-04-03T08:10:57.523Z,42.86
2019-04-03T08:11:57.297Z,43.98
2019-04-03T08:12:59.373Z,43.14
2019-04-03T08:13:57.266Z,43.26
2019-04-03T08:14:57.264Z,43.85
2019-04-03T08:15:57.250Z,43.04
2019-04-03T08:16:57.296Z,43.14
2019-04-03T08:17:57.958Z,43.12
2019-04-03T08:18:57.234Z,43.32
2019-04-03T08:19:57.218Z,43.24
2019-04-03T08:21:00.886Z,42.41
2019-04-03T08:21:57.178Z,42.00
2019-04-03T08:22:57.413Z,43.32
2019-04-03T08:23:57.172Z,43.02
2019-04-03T08:24:57.155Z,43.23
2019-04-03T08:25:57.218Z,41.70
2019-04-03T08:26:57.127Z,42.31
2019-04-03T08:27:57.112Z,43.12
2019-04-03T08:28:57.311Z,42.41
2019-04-03T08:29:57.099Z,42.31
2019-04-03T08:30:57.127Z,42.31
2019-04-03T08:31:57.071Z,42.29
2019-04-03T08:32:57.066Z,42.49
2019-04-03T08:33:59.017Z,42.80
2019-04-03T08:34:57.079Z,42.19
2019-04-03T08:35:57.016Z,42.19
2019-04-03T08:36:57.351Z,41.88
2019-04-03T08:37:59.508Z,42.49
2019-04-03T08:38:56.990Z,43.00
2019-04-03T08:39:58.572Z,42.17
2019-04-03T08:40:57.169Z,42.27
2019-04-03T08:41:57.282Z,42.37
2019-04-03T08:42:59.410Z,41.86
2019-04-03T08:43:57.162Z,42.17
2019-04-03T08:44:56.935Z,41.78
2019-04-03T08:45:56.918Z,42.39
2019-04-03T08:46:56.936Z,41.66
2019-04-03T08:47:56.999Z,41.86
2019-04-03T08:48:56.902Z,42.88
2019-04-03T08:49:57.572Z,42.27
2019-04-03T08:50:58.386Z,41.66
2019-04-03T08:51:56.869Z,42.17
2019-04-03T08:52:56.838Z,42.17
2019-04-03T08:53:56.821Z,41.86
2019-04-03T08:54:56.832Z,42.57
2019-04-03T08:55:56.803Z,41.97
2019-04-03T08:56:56.807Z,42.68
2019-04-03T08:57:56.789Z,42.05
2019-04-03T08:58:57.869Z,42.55
2019-04-03T08:59:58.199Z,42.15
2019-04-03T09:00:56.763Z,42.25
2019-04-03T09:01:56.734Z,41.95
2019-04-03T09:02:56.776Z,42.25
2019-04-03T09:03:56.795Z,41.95
2019-04-03T09:04:56.704Z,41.74
2019-04-03T09:05:56.689Z,41.34
2019-04-03T09:06:56.710Z,42.23
2019-04-03T09:07:56.912Z,42.05
2019-04-03T09:08:57.825Z,42.03
2019-04-03T09:10:00.418Z,42.54
2019-04-03T09:10:56.672Z,41.32
2019-04-03T09:11:56.791Z,41.32
2019-04-03T09:12:56.617Z,41.60
2019-04-03T09:13:56.642Z,41.40
2019-04-03T09:14:57.774Z,41.02
2019-04-03T09:15:58.745Z,42.11
2019-04-03T09:16:56.570Z,41.80
2019-04-03T09:17:56.567Z,41.09
2019-04-03T09:18:56.806Z,41.32
2019-04-03T09:19:57.360Z,41.20
2019-04-03T09:20:56.778Z,41.91
2019-04-03T09:21:56.514Z,41.09
2019-04-03T09:22:56.500Z,41.80
2019-04-03T09:23:57.887Z,41.50
2019-04-03T09:24:56.543Z,40.69
2019-04-03T09:25:56.497Z,40.80
2019-04-03T09:26:56.464Z,41.91
2019-04-03T09:27:56.455Z,40.77
2019-04-03T09:28:56.432Z,39.97
2019-04-03T09:29:56.433Z,40.37
2019-04-03T09:30:56.650Z,40.17
2019-04-03T09:31:56.771Z,40.19
2019-04-03T09:32:59.366Z,40.69
2019-04-03T09:33:57.467Z,41.60
2019-04-03T09:34:56.382Z,40.69
2019-04-03T09:35:59.260Z,40.88
2019-04-03T09:36:56.700Z,40.37
2019-04-03T09:37:56.369Z,40.37
2019-04-03T09:38:56.315Z,40.37
2019-04-03T09:39:56.322Z,39.95
2019-04-03T09:40:56.309Z,40.35
2019-04-03T09:41:56.297Z,40.05
2019-04-03T09:42:56.284Z,39.75
2019-04-03T09:43:56.737Z,39.95
2019-04-03T09:44:56.715Z,39.75
2019-04-03T09:45:59.276Z,38.84
2019-04-03T09:46:56.295Z,39.64
2019-04-03T09:47:56.254Z,39.75
2019-04-03T09:48:56.216Z,39.54
2019-04-03T09:49:56.351Z,39.93
2019-04-03T09:50:56.463Z,39.84
2019-04-03T09:51:56.184Z,39.83
2019-04-03T09:52:56.174Z,39.52
2019-04-03T09:53:57.903Z,39.42
2019-04-03T09:54:56.423Z,39.52
2019-04-03T09:55:56.149Z,39.83
2019-04-03T09:57:01.662Z,40.13
2019-04-03T09:57:56.122Z,40.23
2019-04-03T09:58:56.718Z,40.03
2019-04-03T09:59:56.099Z,39.20
2019-04-03T10:00:56.171Z,39.81
2019-04-03T10:01:56.069Z,39.81
2019-04-03T10:02:56.387Z,39.81
2019-04-03T10:03:56.362Z,39.99
2019-04-03T10:04:58.626Z,39.79
2019-04-03T10:05:56.451Z,38.78
2019-04-03T10:06:56.247Z,39.89
2019-04-03T10:07:56.086Z,39.48
2019-04-03T10:08:56.011Z,39.28
2019-04-03T10:09:55.989Z,38.98
2019-04-03T10:10:55.981Z,39.69
2019-04-03T10:11:55.990Z,39.39
2019-04-03T10:12:55.957Z,39.79
2019-04-03T10:13:57.773Z,39.28
2019-04-03T10:14:58.442Z,39.99
2019-04-03T10:15:55.985Z,39.28
2019-04-03T10:16:55.943Z,39.26
2019-04-03T10:17:55.904Z,39.17
2019-04-03T10:18:55.886Z,39.26
2019-04-03T10:19:55.893Z,39.47
2019-04-03T10:20:55.871Z,38.46
2019-04-03T10:21:55.861Z,39.57
2019-04-03T10:22:56.349Z,39.47
2019-04-03T10:23:55.831Z,39.17
2019-04-03T10:24:55.830Z,38.76
2019-04-03T10:25:55.815Z,38.35
2019-04-03T10:26:55.981Z,39.47
2019-04-03T10:27:55.790Z,39.75
2019-04-03T10:28:55.940Z,39.35
2019-04-03T10:29:56.612Z,38.34
2019-04-03T10:30:55.758Z,38.24
2019-04-03T10:31:56.274Z,37.84
2019-04-03T10:32:56.943Z,38.24
2019-04-03T10:33:55.828Z,37.84
2019-04-03T10:34:57.400Z,38.24
2019-04-03T10:35:55.788Z,38.64
2019-04-03T10:36:56.011Z,38.52
2019-04-03T10:37:55.689Z,38.52
2019-04-03T10:38:55.827Z,38.52
2019-04-03T10:39:55.966Z,38.42
2019-04-03T10:40:56.236Z,37.92
2019-04-03T10:41:55.639Z,38.52
2019-04-03T10:42:55.621Z,38.20
2019-04-03T10:43:55.644Z,38.40
2019-04-03T10:44:55.694Z,38.71
2019-04-03T10:45:55.634Z,38.10
2019-04-03T10:46:55.630Z,37.19
2019-04-03T10:47:56.698Z,37.19
2019-04-03T10:48:55.563Z,37.40
2019-04-03T10:49:55.544Z,37.19
2019-04-03T10:50:55.566Z,37.90
2019-04-03T10:51:55.527Z,37.92
2019-04-03T10:52:59.479Z,38.22
2019-04-03T10:53:55.732Z,38.52
2019-04-03T10:54:56.827Z,38.22
2019-04-03T10:55:55.495Z,38.71
2019-04-03T10:56:55.472Z,37.80
2019-04-03T10:57:55.461Z,36.89
2019-04-03T10:58:55.478Z,37.60
2019-04-03T10:59:55.651Z,37.31
2019-04-03T11:00:58.717Z,37.40
2019-04-03T11:01:55.421Z,36.99
2019-04-03T11:02:55.409Z,36.98
2019-04-03T11:03:55.391Z,37.07
2019-04-03T11:05:00.510Z,36.87
2019-04-03T11:05:56.048Z,36.47
2019-04-03T11:06:55.732Z,36.96
2019-04-03T11:07:55.352Z,36.55
2019-04-03T11:08:55.404Z,35.95
2019-04-03T11:09:55.325Z,36.86
2019-04-03T11:10:55.921Z,36.15
2019-04-03T11:11:55.324Z,36.15
2019-04-03T11:12:55.703Z,36.55
2019-04-03T11:13:55.542Z,35.95
2019-04-03T11:14:55.975Z,36.33
2019-04-03T11:15:55.282Z,36.33
2019-04-03T11:16:55.257Z,36.46
2019-04-03T11:17:55.273Z,36.35
2019-04-03T11:18:59.973Z,36.35
2019-04-03T11:19:55.324Z,35.93
2019-04-03T11:20:55.217Z,36.46
2019-04-03T11:21:56.805Z,36.13
2019-04-03T11:23:05.391Z,36.24
2019-04-03T11:23:55.224Z,35.83
2019-04-03T11:24:55.250Z,36.04
2019-04-03T11:25:55.225Z,36.25
2019-04-03T11:26:55.145Z,37.26
2019-04-03T11:27:55.165Z,37.16
2019-04-03T11:28:55.121Z,37.16
2019-04-03T11:29:55.196Z,37.56
2019-04-03T11:30:56.314Z,37.18
2019-04-03T11:31:55.118Z,37.48
2019-04-03T11:32:55.081Z,37.88
2019-04-03T11:33:55.083Z,37.98
2019-04-03T11:34:55.309Z,38.18
2019-04-03T11:35:55.300Z,36.87
2019-04-03T11:36:55.130Z,38.17
2019-04-03T11:37:55.062Z,38.27
2019-04-03T11:39:06.870Z,37.26
2019-04-03T11:40:02.492Z,37.46
2019-04-03T11:40:55.001Z,37.06
2019-04-03T11:41:56.206Z,36.96
2019-04-03T11:42:54.974Z,37.34
2019-04-03T11:43:55.211Z,36.13
2019-04-03T11:44:55.216Z,36.33
2019-04-03T11:45:54.938Z,37.43
2019-04-03T11:46:54.934Z,36.42
2019-04-03T11:47:55.016Z,35.82
2019-04-03T11:48:54.902Z,36.30
2019-04-03T11:49:54.892Z,35.82
2019-04-03T11:50:56.964Z,35.50
2019-04-03T11:51:55.143Z,36.00
2019-04-03T11:52:54.858Z,35.90
2019-04-03T11:53:54.868Z,35.19
2019-04-03T11:54:54.855Z,35.08
2019-04-03T11:55:54.832Z,35.08
2019-04-03T11:56:56.629Z,35.98
2019-04-03T11:57:55.046Z,35.08
2019-04-03T11:58:55.316Z,34.38
2019-04-03T11:59:56.759Z,34.38
2019-04-03T12:00:54.785Z,34.38
2019-04-03T12:01:54.784Z,34.76
2019-04-03T12:02:54.744Z,34.56
2019-04-03T12:03:55.053Z,34.36
2019-04-03T12:04:54.768Z,34.66
2019-04-03T12:05:54.722Z,34.36
2019-04-03T12:06:54.938Z,33.75
2019-04-03T12:07:56.657Z,34.26
2019-04-03T12:08:54.700Z,34.46
2019-04-03T12:09:55.038Z,34.66
2019-04-03T12:10:55.025Z,34.46
2019-04-03T12:11:55.509Z,33.86
2019-04-03T12:12:54.921Z,34.46
2019-04-03T12:13:54.977Z,34.27
2019-04-03T12:14:54.633Z,34.47
2019-04-03T12:15:57.712Z,34.78
2019-04-03T12:16:56.960Z,34.76
2019-04-03T12:17:54.592Z,34.38
2019-04-03T12:18:54.903Z,34.76
2019-04-03T12:19:54.571Z,34.56
2019-04-03T12:20:54.566Z,34.56
2019-04-03T12:21:54.559Z,33.95
2019-04-03T12:22:55.622Z,34.86
2019-04-03T12:23:54.545Z,34.38
2019-04-03T12:24:54.515Z,34.38
2019-04-03T12:25:54.944Z,35.68
2019-04-03T12:26:55.478Z,35.38
2019-04-03T12:27:54.605Z,34.66
2019-04-03T12:28:54.816Z,34.36
2019-04-03T12:29:55.628Z,34.86
2019-04-03T12:30:54.843Z,34.76
2019-04-03T12:31:54.448Z,34.66
2019-04-03T12:32:54.730Z,34.46
2019-04-03T12:33:59.151Z,35.26
2019-04-03T12:34:54.447Z,34.36
2019-04-03T12:35:54.408Z,34.06
2019-04-03T12:36:54.788Z,34.16
2019-04-03T12:37:54.544Z,34.24
2019-04-03T12:38:55.747Z,33.55
2019-04-03T12:39:54.360Z,33.75
2019-04-03T12:40:54.624Z,34.66
2019-04-03T12:41:54.336Z,34.24
2019-04-03T12:42:54.347Z,34.06
2019-04-03T12:43:54.323Z,33.86
2019-04-03T12:44:55.196Z,34.16
2019-04-03T12:45:57.358Z,34.54
2019-04-03T12:46:54.605Z,34.04
2019-04-03T12:47:54.530Z,33.62
2019-04-03T12:48:54.296Z,34.02
2019-04-03T12:49:55.152Z,34.04
2019-04-03T12:50:54.799Z,33.83
2019-04-03T12:51:54.628Z,33.92
2019-04-03T12:52:54.213Z,33.83
2019-04-03T12:53:54.385Z,33.72
2019-04-03T12:54:54.682Z,33.52
2019-04-03T12:55:56.621Z,33.71
2019-04-03T12:56:54.173Z,33.42
2019-04-03T12:57:54.173Z,32.92
2019-04-03T12:58:54.368Z,33.40
2019-04-03T12:59:54.534Z,33.42
2019-04-03T13:00:54.350Z,33.00